sensor_id;sensor_type;location;lat;lon;timestamp;P1;durP1;ratioP1;P2;durP2;ratioP2
40931;SDS011;36257;46.052;12.540;2023-10-13T01:35:08;22.30;;;11.30;;
40931;SDS011;36257;46.052;12.540;2023-10-13T01:53:07;16.50;;;12.52;;
40931;SDS011;36257;46.052;12.540;2023-10-13T01:55:40;21.00;;;12.82;;
40931;SDS011;36257;46.052;12.540;2023-10-13T01:58:15;19.42;;;13.35;;
40931;SDS011;36257;46.052;12.540;2023-10-13T02:00:45;17.02;;;12.35;;
40931;SDS011;36257;46.052;12.540;2023-10-13T02:03:12;23.48;;;13.40;;
40931;SDS011;36257;46.052;12.540;2023-10-13T02:05:42;16.10;;;12.13;;
40931;SDS011;36257;46.052;12.540;2023-10-13T02:08:22;17.15;;;13.20;;
40931;SDS011;36257;46.052;12.540;2023-10-13T02:10:49;20.00;;;12.20;;
40931;SDS011;36257;46.052;12.540;2023-10-13T02:13:16;15.10;;;12.05;;
40931;SDS011;36257;46.052;12.540;2023-10-13T02:15:46;19.85;;;13.10;;
40931;SDS011;36257;46.052;12.540;2023-10-13T02:18:19;20.30;;;13.15;;
40931;SDS011;36257;46.052;12.540;2023-10-13T02:21:06;19.13;;;12.13;;
40931;SDS011;36257;46.052;12.540;2023-10-13T02:23:41;18.05;;;13.00;;
40931;SDS011;36257;46.052;12.540;2023-10-13T02:26:13;18.98;;;13.27;;
40931;SDS011;36257;46.052;12.540;2023-10-13T02:28:41;24.63;;;13.43;;
40931;SDS011;36257;46.052;12.540;2023-10-13T02:31:09;21.80;;;13.10;;
40931;SDS011;36257;46.052;12.540;2023-10-13T02:33:36;18.58;;;12.77;;
40931;SDS011;36257;46.052;12.540;2023-10-13T02:36:09;18.50;;;12.68;;
40931;SDS011;36257;46.052;12.540;2023-10-13T02:41:15;15.80;;;11.75;;
40931;SDS011;36257;46.052;12.540;2023-10-13T02:43:53;19.95;;;12.10;;
40931;SDS011;36257;46.052;12.540;2023-10-13T02:46:20;14.35;;;11.82;;
40931;SDS011;36257;46.052;12.540;2023-10-13T02:48:50;17.38;;;13.15;;
40931;SDS011;36257;46.052;12.540;2023-10-13T02:51:18;19.35;;;11.27;;
40931;SDS011;36257;46.052;12.540;2023-10-13T02:54:00;16.52;;;11.63;;
40931;SDS011;36257;46.052;12.540;2023-10-13T02:56:35;23.52;;;14.10;;
40931;SDS011;36257;46.052;12.540;2023-10-13T02:59:01;19.88;;;12.40;;
40931;SDS011;36257;46.052;12.540;2023-10-13T03:01:33;19.85;;;13.35;;
40931;SDS011;36257;46.052;12.540;2023-10-13T03:04:00;20.95;;;13.05;;
40931;SDS011;36257;46.052;12.540;2023-10-13T03:06:28;21.00;;;12.30;;
40931;SDS011;36257;46.052;12.540;2023-10-13T03:09:03;15.48;;;11.98;;
40931;SDS011;36257;46.052;12.540;2023-10-13T03:11:53;21.13;;;13.18;;
40931;SDS011;36257;46.052;12.540;2023-10-13T03:14:19;15.65;;;12.73;;
40931;SDS011;36257;46.052;12.540;2023-10-13T03:16:52;22.55;;;11.90;;
40931;SDS011;36257;46.052;12.540;2023-10-13T03:19:18;19.02;;;12.00;;
40931;SDS011;36257;46.052;12.540;2023-10-13T03:21:45;18.70;;;12.63;;
40931;SDS011;36257;46.052;12.540;2023-10-13T03:24:20;20.08;;;12.20;;
40931;SDS011;36257;46.052;12.540;2023-10-13T03:26:58;27.05;;;12.93;;
40931;SDS011;36257;46.052;12.540;2023-10-13T03:29:37;15.10;;;12.43;;
40931;SDS011;36257;46.052;12.540;2023-10-13T03:32:14;21.02;;;11.32;;
40931;SDS011;36257;46.052;12.540;2023-10-13T03:34:41;17.27;;;12.43;;
40931;SDS011;36257;46.052;12.540;2023-10-13T03:37:19;16.60;;;11.20;;
40931;SDS011;36257;46.052;12.540;2023-10-13T03:40:09;16.27;;;10.95;;
40931;SDS011;36257;46.052;12.540;2023-10-13T03:42:48;19.52;;;11.10;;
40931;SDS011;36257;46.052;12.540;2023-10-13T03:45:31;20.13;;;12.73;;
40931;SDS011;36257;46.052;12.540;2023-10-13T03:48:07;16.52;;;12.10;;
40931;SDS011;36257;46.052;12.540;2023-10-13T03:50:49;18.13;;;12.77;;
40931;SDS011;36257;46.052;12.540;2023-10-13T03:53:39;19.65;;;13.02;;
40931;SDS011;36257;46.052;12.540;2023-10-13T03:56:25;15.88;;;12.68;;
40931;SDS011;36257;46.052;12.540;2023-10-13T03:58:55;20.42;;;12.27;;
40931;SDS011;36257;46.052;12.540;2023-10-13T04:01:38;23.58;;;13.68;;
40931;SDS011;36257;46.052;12.540;2023-10-13T04:04:23;21.77;;;12.13;;
40931;SDS011;36257;46.052;12.540;2023-10-13T04:07:07;19.67;;;13.00;;
40931;SDS011;36257;46.052;12.540;2023-10-13T04:09:33;21.85;;;14.10;;
40931;SDS011;36257;46.052;12.540;2023-10-13T04:12:13;17.40;;;12.05;;
40931;SDS011;36257;46.052;12.540;2023-10-13T04:14:42;20.55;;;12.27;;
40931;SDS011;36257;46.052;12.540;2023-10-13T04:17:27;21.00;;;12.98;;
40931;SDS011;36257;46.052;12.540;2023-10-13T04:19:56;19.25;;;13.63;;
40931;SDS011;36257;46.052;12.540;2023-10-13T04:25:27;18.10;;;11.50;;
40931;SDS011;36257;46.052;12.540;2023-10-13T04:28:12;22.80;;;12.50;;
40931;SDS011;36257;46.052;12.540;2023-10-13T04:33:21;18.85;;;12.10;;
40931;SDS011;36257;46.052;12.540;2023-10-13T04:36:06;17.15;;;11.45;;
40931;SDS011;36257;46.052;12.540;2023-10-13T04:38:48;16.45;;;11.88;;
40931;SDS011;36257;46.052;12.540;2023-10-13T04:41:33;16.63;;;10.82;;
40931;SDS011;36257;46.052;12.540;2023-10-13T04:44:22;25.75;;;12.65;;
40931;SDS011;36257;46.052;12.540;2023-10-13T04:47:06;17.23;;;11.73;;
40931;SDS011;36257;46.052;12.540;2023-10-13T04:49:39;22.17;;;12.40;;
40931;SDS011;36257;46.052;12.540;2023-10-13T04:52:11;12.70;;;11.27;;
40931;SDS011;36257;46.052;12.540;2023-10-13T04:54:37;25.30;;;13.80;;
40931;SDS011;36257;46.052;12.540;2023-10-13T04:57:30;20.13;;;11.93;;
40931;SDS011;36257;46.052;12.540;2023-10-13T05:00:11;19.50;;;12.52;;
40931;SDS011;36257;46.052;12.540;2023-10-13T05:07:43;20.90;;;12.77;;
40931;SDS011;36257;46.052;12.540;2023-10-13T05:10:29;17.63;;;11.93;;
40931;SDS011;36257;46.052;12.540;2023-10-13T05:13:13;19.60;;;12.30;;
40931;SDS011;36257;46.052;12.540;2023-10-13T05:15:57;18.42;;;12.55;;
40931;SDS011;36257;46.052;12.540;2023-10-13T05:18:42;18.80;;;11.32;;
40931;SDS011;36257;46.052;12.540;2023-10-13T05:21:26;23.55;;;12.35;;
40931;SDS011;36257;46.052;12.540;2023-10-13T05:24:11;16.75;;;12.27;;
40931;SDS011;36257;46.052;12.540;2023-10-13T05:27:13;16.30;;;11.48;;
40931;SDS011;36257;46.052;12.540;2023-10-13T05:29:57;21.85;;;11.80;;
40931;SDS011;36257;46.052;12.540;2023-10-13T05:32:41;17.55;;;12.30;;
40931;SDS011;36257;46.052;12.540;2023-10-13T05:35:25;23.05;;;13.23;;
40931;SDS011;36257;46.052;12.540;2023-10-13T05:38:09;19.60;;;13.20;;
40931;SDS011;36257;46.052;12.540;2023-10-13T05:40:55;19.90;;;13.45;;
40931;SDS011;36257;46.052;12.540;2023-10-13T05:43:41;18.88;;;12.70;;
40931;SDS011;36257;46.052;12.540;2023-10-13T05:46:26;20.52;;;13.02;;
40931;SDS011;36257;46.052;12.540;2023-10-13T05:48:52;18.88;;;14.55;;
40931;SDS011;36257;46.052;12.540;2023-10-13T05:51:24;24.58;;;16.00;;
40931;SDS011;36257;46.052;12.540;2023-10-13T05:54:03;18.95;;;13.85;;
40931;SDS011;36257;46.052;12.540;2023-10-13T05:59:28;19.83;;;12.25;;
40931;SDS011;36257;46.052;12.540;2023-10-13T06:02:17;16.40;;;12.38;;
40931;SDS011;36257;46.052;12.540;2023-10-13T06:05:07;17.13;;;11.70;;
40931;SDS011;36257;46.052;12.540;2023-10-13T06:07:56;18.83;;;11.10;;
40931;SDS011;36257;46.052;12.540;2023-10-13T06:10:40;17.65;;;12.63;;
40931;SDS011;36257;46.052;12.540;2023-10-13T06:13:25;19.48;;;12.48;;
40931;SDS011;36257;46.052;12.540;2023-10-13T06:16:11;17.92;;;13.05;;
40931;SDS011;36257;46.052;12.540;2023-10-13T06:21:42;18.20;;;13.18;;
40931;SDS011;36257;46.052;12.540;2023-10-13T06:24:26;24.00;;;12.32;;
40931;SDS011;36257;46.052;12.540;2023-10-13T06:27:11;19.52;;;13.32;;
40931;SDS011;36257;46.052;12.540;2023-10-13T06:29:55;22.83;;;13.75;;
40931;SDS011;36257;46.052;12.540;2023-10-13T06:32:21;19.38;;;14.10;;
40931;SDS011;36257;46.052;12.540;2023-10-13T06:34:51;25.58;;;14.98;;
40931;SDS011;36257;46.052;12.540;2023-10-13T06:37:24;18.40;;;13.05;;
40931;SDS011;36257;46.052;12.540;2023-10-13T06:40:00;24.55;;;15.43;;
40931;SDS011;36257;46.052;12.540;2023-10-13T06:42:47;23.77;;;15.32;;
40931;SDS011;36257;46.052;12.540;2023-10-13T06:45:13;26.30;;;13.95;;
40931;SDS011;36257;46.052;12.540;2023-10-13T06:47:42;23.67;;;14.88;;
40931;SDS011;36257;46.052;12.540;2023-10-13T06:50:14;24.98;;;14.05;;
40931;SDS011;36257;46.052;12.540;2023-10-13T06:52:44;23.17;;;13.75;;
40931;SDS011;36257;46.052;12.540;2023-10-13T06:55:13;21.52;;;13.65;;
40931;SDS011;36257;46.052;12.540;2023-10-13T06:57:45;28.58;;;14.40;;
40931;SDS011;36257;46.052;12.540;2023-10-13T07:00:12;22.60;;;14.48;;
40931;SDS011;36257;46.052;12.540;2023-10-13T07:02:56;21.33;;;14.10;;
40931;SDS011;36257;46.052;12.540;2023-10-13T07:05:33;21.27;;;14.73;;
40931;SDS011;36257;46.052;12.540;2023-10-13T07:08:06;24.90;;;13.70;;
40931;SDS011;36257;46.052;12.540;2023-10-13T07:10:32;20.48;;;13.68;;
40931;SDS011;36257;46.052;12.540;2023-10-13T07:15:36;18.83;;;13.75;;
40931;SDS011;36257;46.052;12.540;2023-10-13T07:18:09;18.23;;;13.95;;
40931;SDS011;36257;46.052;12.540;2023-10-13T07:20:47;21.50;;;13.45;;
40931;SDS011;36257;46.052;12.540;2023-10-13T07:23:14;19.60;;;14.00;;
40931;SDS011;36257;46.052;12.540;2023-10-13T07:25:50;22.10;;;14.43;;
40931;SDS011;36257;46.052;12.540;2023-10-13T07:28:18;23.63;;;16.08;;
40931;SDS011;36257;46.052;12.540;2023-10-13T07:30:44;26.25;;;17.77;;
40931;SDS011;36257;46.052;12.540;2023-10-13T07:33:19;26.80;;;18.45;;
40931;SDS011;36257;46.052;12.540;2023-10-13T07:35:48;25.60;;;18.77;;
40931;SDS011;36257;46.052;12.540;2023-10-13T07:38:25;35.55;;;24.48;;
40931;SDS011;36257;46.052;12.540;2023-10-13T07:40:51;37.27;;;24.67;;
40931;SDS011;36257;46.052;12.540;2023-10-13T07:43:17;46.53;;;30.63;;
40931;SDS011;36257;46.052;12.540;2023-10-13T07:45:48;41.60;;;28.90;;
40931;SDS011;36257;46.052;12.540;2023-10-13T07:48:23;45.15;;;31.45;;
40931;SDS011;36257;46.052;12.540;2023-10-13T07:53:28;40.72;;;28.25;;
40931;SDS011;36257;46.052;12.540;2023-10-13T07:55:59;41.97;;;30.90;;
40931;SDS011;36257;46.052;12.540;2023-10-13T07:58:30;41.15;;;28.98;;
40931;SDS011;36257;46.052;12.540;2023-10-13T08:00:57;53.30;;;32.92;;
40931;SDS011;36257;46.052;12.540;2023-10-13T08:03:33;53.00;;;32.08;;
40931;SDS011;36257;46.052;12.540;2023-10-13T08:06:15;49.42;;;34.00;;
40931;SDS011;36257;46.052;12.540;2023-10-13T08:08:41;47.58;;;35.10;;
40931;SDS011;36257;46.052;12.540;2023-10-13T08:11:09;52.92;;;34.28;;
40931;SDS011;36257;46.052;12.540;2023-10-13T08:13:48;51.15;;;33.22;;
40931;SDS011;36257;46.052;12.540;2023-10-13T08:16:21;47.70;;;31.90;;
40931;SDS011;36257;46.052;12.540;2023-10-13T08:18:51;46.03;;;30.30;;
40931;SDS011;36257;46.052;12.540;2023-10-13T08:21:17;41.20;;;28.52;;
40931;SDS011;36257;46.052;12.540;2023-10-13T08:23:50;50.83;;;31.10;;
40931;SDS011;36257;46.052;12.540;2023-10-13T08:26:19;37.70;;;28.38;;
40931;SDS011;36257;46.052;12.540;2023-10-13T08:29:04;48.15;;;32.10;;
40931;SDS011;36257;46.052;12.540;2023-10-13T08:31:48;39.78;;;28.02;;
40931;SDS011;36257;46.052;12.540;2023-10-13T08:34:33;41.22;;;27.48;;
40931;SDS011;36257;46.052;12.540;2023-10-13T08:37:09;44.47;;;28.40;;
40931;SDS011;36257;46.052;12.540;2023-10-13T08:39:47;40.58;;;30.08;;
40931;SDS011;36257;46.052;12.540;2023-10-13T08:42:38;39.85;;;26.55;;
40931;SDS011;36257;46.052;12.540;2023-10-13T08:45:07;37.20;;;26.50;;
40931;SDS011;36257;46.052;12.540;2023-10-13T08:47:55;39.47;;;28.63;;
40931;SDS011;36257;46.052;12.540;2023-10-13T08:50:36;42.92;;;28.15;;
40931;SDS011;36257;46.052;12.540;2023-10-13T08:53:15;36.95;;;28.13;;
40931;SDS011;36257;46.052;12.540;2023-10-13T08:56:06;42.83;;;30.52;;
40931;SDS011;36257;46.052;12.540;2023-10-13T08:58:39;42.28;;;28.08;;
40931;SDS011;36257;46.052;12.540;2023-10-13T09:01:28;39.63;;;26.80;;
40931;SDS011;36257;46.052;12.540;2023-10-13T09:04:13;42.17;;;28.65;;
40931;SDS011;36257;46.052;12.540;2023-10-13T09:06:50;41.13;;;27.10;;
40931;SDS011;36257;46.052;12.540;2023-10-13T09:12:17;37.13;;;25.67;;
40931;SDS011;36257;46.052;12.540;2023-10-13T09:14:52;40.38;;;28.13;;
40931;SDS011;36257;46.052;12.540;2023-10-13T09:17:30;42.15;;;29.08;;
40931;SDS011;36257;46.052;12.540;2023-10-13T09:22:46;40.92;;;27.80;;
40931;SDS011;36257;46.052;12.540;2023-10-13T09:25:27;47.08;;;26.80;;
40931;SDS011;36257;46.052;12.540;2023-10-13T09:30:49;38.22;;;25.15;;
40931;SDS011;36257;46.052;12.540;2023-10-13T09:33:21;38.63;;;25.60;;
40931;SDS011;36257;46.052;12.540;2023-10-13T09:35:57;42.20;;;28.98;;
40931;SDS011;36257;46.052;12.540;2023-10-13T09:38:25;30.02;;;23.90;;
40931;SDS011;36257;46.052;12.540;2023-10-13T09:40:52;31.60;;;24.25;;
40931;SDS011;36257;46.052;12.540;2023-10-13T09:43:22;40.67;;;27.63;;
40931;SDS011;36257;46.052;12.540;2023-10-13T09:45:58;32.65;;;25.08;;
40931;SDS011;36257;46.052;12.540;2023-10-13T09:48:37;37.83;;;25.48;;
40931;SDS011;36257;46.052;12.540;2023-10-13T09:51:14;37.28;;;26.45;;
40931;SDS011;36257;46.052;12.540;2023-10-13T09:53:51;34.78;;;24.75;;
40931;SDS011;36257;46.052;12.540;2023-10-13T09:56:31;39.45;;;25.85;;
40931;SDS011;36257;46.052;12.540;2023-10-13T09:59:16;35.17;;;25.25;;
40931;SDS011;36257;46.052;12.540;2023-10-13T10:01:48;35.20;;;23.80;;
40931;SDS011;36257;46.052;12.540;2023-10-13T10:04:17;34.75;;;25.33;;
40931;SDS011;36257;46.052;12.540;2023-10-13T10:06:57;38.10;;;24.35;;
40931;SDS011;36257;46.052;12.540;2023-10-13T10:09:28;40.15;;;27.63;;
40931;SDS011;36257;46.052;12.540;2023-10-13T10:17:37;35.13;;;26.27;;
40931;SDS011;36257;46.052;12.540;2023-10-13T10:20:07;36.65;;;23.67;;
40931;SDS011;36257;46.052;12.540;2023-10-13T10:22:57;42.05;;;28.08;;
40931;SDS011;36257;46.052;12.540;2023-10-13T10:25:33;37.83;;;26.30;;
40931;SDS011;36257;46.052;12.540;2023-10-13T10:28:03;40.67;;;26.15;;
40931;SDS011;36257;46.052;12.540;2023-10-13T10:30:31;42.15;;;28.08;;
40931;SDS011;36257;46.052;12.540;2023-10-13T10:32:59;35.22;;;24.50;;
40931;SDS011;36257;46.052;12.540;2023-10-13T10:35:28;41.80;;;25.80;;
40931;SDS011;36257;46.052;12.540;2023-10-13T10:38:16;42.38;;;27.77;;
40931;SDS011;36257;46.052;12.540;2023-10-13T10:40:53;33.28;;;23.80;;
40931;SDS011;36257;46.052;12.540;2023-10-13T10:46:10;42.40;;;28.67;;
40931;SDS011;36257;46.052;12.540;2023-10-13T10:48:40;34.67;;;23.77;;
40931;SDS011;36257;46.052;12.540;2023-10-13T10:51:09;29.98;;;22.48;;
40931;SDS011;36257;46.052;12.540;2023-10-13T10:53:51;32.55;;;24.45;;
40931;SDS011;36257;46.052;12.540;2023-10-13T10:56:18;41.03;;;26.42;;
40931;SDS011;36257;46.052;12.540;2023-10-13T10:58:50;39.72;;;26.25;;
40931;SDS011;36257;46.052;12.540;2023-10-13T11:01:23;35.05;;;21.55;;
40931;SDS011;36257;46.052;12.540;2023-10-13T11:04:02;42.75;;;26.88;;
40931;SDS011;36257;46.052;12.540;2023-10-13T11:06:56;38.30;;;26.83;;
40931;SDS011;36257;46.052;12.540;2023-10-13T11:09:24;38.50;;;25.80;;
40931;SDS011;36257;46.052;12.540;2023-10-13T11:12:09;32.22;;;23.15;;
40931;SDS011;36257;46.052;12.540;2023-10-13T11:14:58;39.55;;;26.45;;
40931;SDS011;36257;46.052;12.540;2023-10-13T11:17:26;41.58;;;29.10;;
40931;SDS011;36257;46.052;12.540;2023-10-13T11:22:46;36.83;;;21.55;;
40931;SDS011;36257;46.052;12.540;2023-10-13T11:25:29;35.35;;;25.85;;
40931;SDS011;36257;46.052;12.540;2023-10-13T11:31:35;32.30;;;20.48;;
40931;SDS011;36257;46.052;12.540;2023-10-13T11:34:02;30.63;;;23.25;;
40931;SDS011;36257;46.052;12.540;2023-10-13T11:36:31;34.60;;;23.85;;
40931;SDS011;36257;46.052;12.540;2023-10-13T11:38:58;39.20;;;24.00;;
40931;SDS011;36257;46.052;12.540;2023-10-13T11:41:23;35.88;;;24.90;;
40931;SDS011;36257;46.052;12.540;2023-10-13T11:43:58;33.20;;;23.67;;
40931;SDS011;36257;46.052;12.540;2023-10-13T11:46:48;35.58;;;24.17;;
40931;SDS011;36257;46.052;12.540;2023-10-13T11:49:21;32.45;;;23.42;;
40931;SDS011;36257;46.052;12.540;2023-10-13T11:51:53;36.15;;;25.30;;
40931;SDS011;36257;46.052;12.540;2023-10-13T11:54:41;51.92;;;24.63;;
40931;SDS011;36257;46.052;12.540;2023-10-13T11:57:07;34.30;;;22.38;;
40931;SDS011;36257;46.052;12.540;2023-10-13T11:59:33;36.63;;;23.98;;
40931;SDS011;36257;46.052;12.540;2023-10-13T12:02:01;34.30;;;23.15;;
40931;SDS011;36257;46.052;12.540;2023-10-13T12:11:54;35.20;;;24.77;;
40931;SDS011;36257;46.052;12.540;2023-10-13T12:14:29;31.05;;;21.52;;
40931;SDS011;36257;46.052;12.540;2023-10-13T12:17:17;31.00;;;20.00;;
40931;SDS011;36257;46.052;12.540;2023-10-13T12:19:56;36.20;;;24.70;;
40931;SDS011;36257;46.052;12.540;2023-10-13T12:22:25;31.83;;;20.50;;
40931;SDS011;36257;46.052;12.540;2023-10-13T12:24:56;35.08;;;22.83;;
40931;SDS011;36257;46.052;12.540;2023-10-13T12:27:22;34.97;;;22.60;;
40931;SDS011;36257;46.052;12.540;2023-10-13T12:29:49;36.03;;;21.77;;
40931;SDS011;36257;46.052;12.540;2023-10-13T12:32:21;31.73;;;21.77;;
40931;SDS011;36257;46.052;12.540;2023-10-13T12:34:50;34.25;;;22.67;;
40931;SDS011;36257;46.052;12.540;2023-10-13T12:37:42;31.08;;;21.60;;
40931;SDS011;36257;46.052;12.540;2023-10-13T12:40:08;27.50;;;20.80;;
40931;SDS011;36257;46.052;12.540;2023-10-13T12:42:54;36.70;;;21.20;;
40931;SDS011;36257;46.052;12.540;2023-10-13T12:45:38;35.28;;;21.05;;
40931;SDS011;36257;46.052;12.540;2023-10-13T12:48:23;36.03;;;23.95;;
40931;SDS011;36257;46.052;12.540;2023-10-13T12:51:07;29.27;;;20.13;;
40931;SDS011;36257;46.052;12.540;2023-10-13T12:56:14;29.00;;;20.60;;
40931;SDS011;36257;46.052;12.540;2023-10-13T12:58:40;32.15;;;19.83;;
40931;SDS011;36257;46.052;12.540;2023-10-13T13:01:07;30.95;;;20.40;;
40931;SDS011;36257;46.052;12.540;2023-10-13T13:03:33;32.08;;;20.80;;
40931;SDS011;36257;46.052;12.540;2023-10-13T13:05:59;30.63;;;21.02;;
40931;SDS011;36257;46.052;12.540;2023-10-13T13:08:32;28.20;;;21.15;;
40931;SDS011;36257;46.052;12.540;2023-10-13T13:11:00;34.78;;;23.52;;
40931;SDS011;36257;46.052;12.540;2023-10-13T13:13:26;25.30;;;18.45;;
40931;SDS011;36257;46.052;12.540;2023-10-13T13:15:52;29.45;;;20.98;;
40931;SDS011;36257;46.052;12.540;2023-10-13T13:18:18;29.48;;;21.58;;
40931;SDS011;36257;46.052;12.540;2023-10-13T13:20:44;32.05;;;20.30;;
40931;SDS011;36257;46.052;12.540;2023-10-13T13:23:23;28.88;;;20.38;;
40931;SDS011;36257;46.052;12.540;2023-10-13T13:25:52;35.30;;;23.48;;
40931;SDS011;36257;46.052;12.540;2023-10-13T13:28:18;29.33;;;20.65;;
40931;SDS011;36257;46.052;12.540;2023-10-13T13:30:44;30.90;;;22.63;;
40931;SDS011;36257;46.052;12.540;2023-10-13T13:33:11;25.05;;;17.92;;
40931;SDS011;36257;46.052;12.540;2023-10-13T13:35:37;33.38;;;21.52;;
40931;SDS011;36257;46.052;12.540;2023-10-13T13:38:03;29.85;;;19.63;;
40931;SDS011;36257;46.052;12.540;2023-10-13T13:40:38;33.42;;;22.25;;
40931;SDS011;36257;46.052;12.540;2023-10-13T13:43:05;28.00;;;20.02;;
40931;SDS011;36257;46.052;12.540;2023-10-13T13:47:59;27.75;;;18.80;;
40931;SDS011;36257;46.052;12.540;2023-10-13T13:50:32;28.92;;;19.50;;
40931;SDS011;36257;46.052;12.540;2023-10-13T13:53:03;30.27;;;20.08;;
40931;SDS011;36257;46.052;12.540;2023-10-13T13:55:34;29.40;;;20.48;;
40931;SDS011;36257;46.052;12.540;2023-10-13T13:58:00;26.40;;;20.35;;
40931;SDS011;36257;46.052;12.540;2023-10-13T14:00:25;31.58;;;21.08;;
40931;SDS011;36257;46.052;12.540;2023-10-13T14:03:05;29.25;;;20.88;;
40931;SDS011;36257;46.052;12.540;2023-10-13T14:05:39;29.42;;;19.92;;
40931;SDS011;36257;46.052;12.540;2023-10-13T14:08:06;29.02;;;20.83;;
40931;SDS011;36257;46.052;12.540;2023-10-13T14:10:37;32.42;;;23.13;;
40931;SDS011;36257;46.052;12.540;2023-10-13T14:13:23;35.78;;;26.08;;
40931;SDS011;36257;46.052;12.540;2023-10-13T14:16:09;42.13;;;27.90;;
40931;SDS011;36257;46.052;12.540;2023-10-13T14:18:42;46.80;;;30.38;;
40931;SDS011;36257;46.052;12.540;2023-10-13T14:21:17;38.40;;;28.27;;
40931;SDS011;36257;46.052;12.540;2023-10-13T14:23:49;39.75;;;27.27;;
40931;SDS011;36257;46.052;12.540;2023-10-13T14:26:19;40.47;;;30.33;;
40931;SDS011;36257;46.052;12.540;2023-10-13T14:31:33;44.90;;;28.75;;
40931;SDS011;36257;46.052;12.540;2023-10-13T14:34:04;42.00;;;26.05;;
40931;SDS011;36257;46.052;12.540;2023-10-13T14:36:31;44.95;;;27.90;;
40931;SDS011;36257;46.052;12.540;2023-10-13T14:39:00;38.60;;;26.38;;
40931;SDS011;36257;46.052;12.540;2023-10-13T14:41:26;30.45;;;23.70;;
40931;SDS011;36257;46.052;12.540;2023-10-13T14:43:52;40.42;;;27.33;;
40931;SDS011;36257;46.052;12.540;2023-10-13T14:46:18;37.47;;;24.17;;
40931;SDS011;36257;46.052;12.540;2023-10-13T14:48:54;32.72;;;21.33;;
40931;SDS011;36257;46.052;12.540;2023-10-13T14:51:20;36.70;;;22.88;;
40931;SDS011;36257;46.052;12.540;2023-10-13T14:53:46;38.65;;;26.08;;
40931;SDS011;36257;46.052;12.540;2023-10-13T14:56:13;39.65;;;24.35;;
40931;SDS011;36257;46.052;12.540;2023-10-13T14:58:40;31.83;;;21.30;;
40931;SDS011;36257;46.052;12.540;2023-10-13T15:01:19;43.63;;;28.58;;
40931;SDS011;36257;46.052;12.540;2023-10-13T15:03:47;40.70;;;26.63;;
40931;SDS011;36257;46.052;12.540;2023-10-13T15:08:50;43.80;;;29.95;;
40931;SDS011;36257;46.052;12.540;2023-10-13T15:11:19;34.67;;;24.50;;
40931;SDS011;36257;46.052;12.540;2023-10-13T15:13:45;34.55;;;24.15;;
40931;SDS011;36257;46.052;12.540;2023-10-13T15:16:17;38.13;;;24.75;;
40931;SDS011;36257;46.052;12.540;2023-10-13T15:18:48;37.50;;;23.20;;
40931;SDS011;36257;46.052;12.540;2023-10-13T15:21:21;35.38;;;23.50;;
40931;SDS011;36257;46.052;12.540;2023-10-13T15:23:59;34.10;;;22.20;;
40931;SDS011;36257;46.052;12.540;2023-10-13T15:26:31;30.40;;;21.30;;
40931;SDS011;36257;46.052;12.540;2023-10-13T15:29:03;30.98;;;20.95;;
40931;SDS011;36257;46.052;12.540;2023-10-13T15:31:34;32.60;;;21.27;;
40931;SDS011;36257;46.052;12.540;2023-10-13T15:34:01;28.90;;;18.38;;
40931;SDS011;36257;46.052;12.540;2023-10-13T15:36:54;26.48;;;19.10;;
40931;SDS011;36257;46.052;12.540;2023-10-13T15:41:53;25.70;;;17.42;;
40931;SDS011;36257;46.052;12.540;2023-10-13T15:44:22;31.85;;;18.00;;
40931;SDS011;36257;46.052;12.540;2023-10-13T15:46:55;21.77;;;16.65;;
40931;SDS011;36257;46.052;12.540;2023-10-13T15:49:22;26.80;;;17.50;;
40931;SDS011;36257;46.052;12.540;2023-10-13T15:51:48;27.35;;;16.73;;
40931;SDS011;36257;46.052;12.540;2023-10-13T15:54:14;26.92;;;17.65;;
40931;SDS011;36257;46.052;12.540;2023-10-13T15:56:46;25.02;;;17.60;;
40931;SDS011;36257;46.052;12.540;2023-10-13T15:59:21;20.40;;;15.57;;
40931;SDS011;36257;46.052;12.540;2023-10-13T16:01:50;28.30;;;20.25;;
40931;SDS011;36257;46.052;12.540;2023-10-13T16:04:21;25.88;;;17.65;;
40931;SDS011;36257;46.052;12.540;2023-10-13T16:06:47;28.88;;;19.15;;
40931;SDS011;36257;46.052;12.540;2023-10-13T16:09:19;21.48;;;16.92;;
40931;SDS011;36257;46.052;12.540;2023-10-13T16:11:48;19.30;;;16.25;;
40931;SDS011;36257;46.052;12.540;2023-10-13T16:14:18;25.60;;;17.15;;
40931;SDS011;36257;46.052;12.540;2023-10-13T16:16:47;24.85;;;17.77;;
40931;SDS011;36257;46.052;12.540;2023-10-13T16:19:14;22.30;;;16.88;;
40931;SDS011;36257;46.052;12.540;2023-10-13T16:21:46;23.80;;;17.27;;
40931;SDS011;36257;46.052;12.540;2023-10-13T16:24:12;23.88;;;16.85;;
40931;SDS011;36257;46.052;12.540;2023-10-13T16:26:43;27.05;;;17.60;;
40931;SDS011;36257;46.052;12.540;2023-10-13T16:29:14;26.98;;;19.20;;
40931;SDS011;36257;46.052;12.540;2023-10-13T16:31:41;22.87;;;19.17;;
40931;SDS011;36257;46.052;12.540;2023-10-13T16:34:10;26.58;;;18.52;;
40931;SDS011;36257;46.052;12.540;2023-10-13T16:36:43;24.40;;;17.98;;
40931;SDS011;36257;46.052;12.540;2023-10-13T16:39:13;25.73;;;16.42;;
40931;SDS011;36257;46.052;12.540;2023-10-13T16:41:47;23.92;;;18.63;;
40931;SDS011;36257;46.052;12.540;2023-10-13T16:44:16;23.20;;;17.52;;
40931;SDS011;36257;46.052;12.540;2023-10-13T16:46:42;26.98;;;19.02;;
40931;SDS011;36257;46.052;12.540;2023-10-13T16:49:08;23.55;;;19.42;;
40931;SDS011;36257;46.052;12.540;2023-10-13T16:51:36;28.60;;;18.33;;
40931;SDS011;36257;46.052;12.540;2023-10-13T16:54:02;32.15;;;20.65;;
40931;SDS011;36257;46.052;12.540;2023-10-13T16:56:28;30.58;;;21.42;;
40931;SDS011;36257;46.052;12.540;2023-10-13T16:58:53;36.83;;;22.33;;
40931;SDS011;36257;46.052;12.540;2023-10-13T17:01:20;26.58;;;20.45;;
40931;SDS011;36257;46.052;12.540;2023-10-13T17:03:46;29.67;;;20.88;;
40931;SDS011;36257;46.052;12.540;2023-10-13T17:06:14;27.70;;;20.45;;
40931;SDS011;36257;46.052;12.540;2023-10-13T17:08:41;28.48;;;20.45;;
40931;SDS011;36257;46.052;12.540;2023-10-13T17:11:14;28.23;;;19.40;;
40931;SDS011;36257;46.052;12.540;2023-10-13T17:13:44;29.05;;;18.15;;
40931;SDS011;36257;46.052;12.540;2023-10-13T17:18:41;24.77;;;19.20;;
40931;SDS011;36257;46.052;12.540;2023-10-13T17:23:53;30.30;;;19.57;;
40931;SDS011;36257;46.052;12.540;2023-10-13T17:26:20;30.40;;;21.97;;
40931;SDS011;36257;46.052;12.540;2023-10-13T17:28:48;27.52;;;21.20;;
40931;SDS011;36257;46.052;12.540;2023-10-13T17:31:14;27.07;;;19.50;;
40931;SDS011;36257;46.052;12.540;2023-10-13T17:33:40;31.27;;;21.38;;
40931;SDS011;36257;46.052;12.540;2023-10-13T17:36:07;27.40;;;19.40;;
40931;SDS011;36257;46.052;12.540;2023-10-13T17:38:34;31.83;;;21.75;;
40931;SDS011;36257;46.052;12.540;2023-10-13T17:41:01;29.35;;;20.33;;
40931;SDS011;36257;46.052;12.540;2023-10-13T17:43:29;27.88;;;20.38;;
40931;SDS011;36257;46.052;12.540;2023-10-13T17:45:56;28.45;;;21.52;;
40931;SDS011;36257;46.052;12.540;2023-10-13T17:48:22;27.00;;;21.02;;